Time;durP1;ratioP1;P1;durP2;ratioP2;P2;SDS_P1;SDS_P2;PMS_P1;PMS_P2;Temp;Humidity;BMP_temperature;BMP_pressure;BME280_temperature;BME280_humidity;BME280_pressure;Samples;Min_cycle;Max_cycle;Signal;HPM_P1;HPM_P2
2022/07/10 00:01:23;;;;;;;;;;;19.90;99.90;;;;;;5095997;28;19931;-78
2022/07/10 00:03:49;;;;;;;;;;;20.00;99.90;;;;;;5095744;28;19961;-79
2022/07/10 00:06:15;;;;;;;;;;;20.00;99.90;;;;;;5095799;28;19916;-77
2022/07/10 00:08:42;;;;;;;;;;;19.90;99.90;;;;;;5095644;28;19908;-78
2022/07/10 00:11:08;;;;;;;;;;;19.90;99.90;;;;;;5095634;28;19914;-78
2022/07/10 00:13:34;;;;;;;;;;;19.90;99.90;;;;;;5095547;28;20284;-79
2022/07/10 00:16:01;;;;;;;;;;;19.80;99.90;;;;;;5095519;28;19908;-78
2022/07/10 00:18:27;;;;;;;;;;;19.60;99.90;;;;;;5095461;28;19908;-79
2022/07/10 00:20:53;;;;;;;;;;;19.40;99.90;;;;;;5095970;28;19908;-77
2022/07/10 00:23:19;;;;;;;;;;;19.40;99.90;;;;;;5095422;28;20006;-78
2022/07/10 00:25:44;;;;;;;;;;;19.40;99.90;;;;;;5076941;28;19999;-77
2022/07/10 00:28:11;;;;;;;;;;;19.50;99.90;;;;;;5095314;28;20003;-79
2022/07/10 00:30:37;;;;;;;;;;;19.50;99.90;;;;;;5095600;28;20320;-79
2022/07/10 00:33:02;;;;;;;;;;;19.30;99.90;;;;;;5095105;28;19948;-78
2022/07/10 00:35:28;;;;;;;;;;;19.30;99.90;;;;;;5095428;28;20417;-80
2022/07/10 00:37:54;;;;;;;;;;;19.20;99.90;;;;;;5095163;28;19909;-79
2022/07/10 00:40:20;;;;;;;;;;;19.30;99.90;;;;;;5094834;28;19912;-78
2022/07/10 00:42:45;;;;;;;;;;;19.30;99.90;;;;;;5095006;28;19924;-78
2022/07/10 00:45:11;;;;;;;;;;;19.40;99.90;;;;;;5095007;28;19909;-78
2022/07/10 00:47:37;;;;;;;;;;;19.30;99.90;;;;;;5094988;28;19909;-79
2022/07/10 00:50:03;;;;;;;;;;;19.00;99.90;;;;;;5094869;28;19908;-79
2022/07/10 00:52:29;;;;;;;;;;;18.90;99.90;;;;;;5094848;28;19915;-79
2022/07/10 00:54:55;;;;;;;;;;;18.90;99.90;;;;;;5094803;28;20287;-79
2022/07/10 00:57:21;;;;;;;;;;;18.80;99.90;;;;;;5094772;28;19909;-79
2022/07/10 00:59:48;;;;;;;;;;;18.70;99.90;;;;;;5094805;28;19916;-77
2022/07/10 01:02:14;;;;;;;;;;;18.80;99.90;;;;;;5094632;28;19919;-79
2022/07/10 01:04:39;;;;;;;;;;;18.80;99.90;;;;;;5094795;28;20384;-78
2022/07/10 01:07:05;;;;;;;;;;;18.80;99.90;;;;;;5094606;28;20018;-78
2022/07/10 01:09:32;;;;;;;;;;;18.60;99.90;;;;;;5094516;28;19915;-79
2022/07/10 01:11:59;;;;;;;;;;;18.70;99.90;;;;;;5094456;28;19913;-78
2022/07/10 01:14:25;;;;;;;;;;;18.80;99.90;;;;;;5094444;28;19915;-79
2022/07/10 01:16:51;;;;;;;;;;;18.80;99.90;;;;;;5094545;28;19912;-79
2022/07/10 01:19:17;;;;;;;;;;;18.80;99.90;;;;;;5094494;28;19908;-79
2022/07/10 01:21:43;;;;;;;;;;;18.80;99.90;;;;;;5094888;28;19915;-79
2022/07/10 01:24:09;;;;;;;;;;;18.60;99.90;;;;;;5094299;28;19953;-78
2022/07/10 01:26:35;;;;;;;;;;;18.70;99.90;;;;;;5094251;28;20361;-78
2022/07/10 01:29:04;;;;;;;;;;;18.70;99.90;;;;;;5094353;28;19915;-79
2022/07/10 01:31:30;;;;;;;;;;;18.60;99.90;;;;;;5094204;28;19998;-79
2022/07/10 01:33:56;;;;;;;;;;;18.60;99.90;;;;;;5094254;28;20370;-78
2022/07/10 01:36:22;;;;;;;;;;;18.60;99.90;;;;;;5075875;28;20398;-79
2022/07/10 01:38:48;;;;;;;;;;;18.50;99.90;;;;;;5093925;28;19962;-78
2022/07/10 01:41:13;;;;;;;;;;;18.60;99.90;;;;;;5072293;28;19924;-77
2022/07/10 01:43:42;;;;;;;;;;;18.50;99.90;;;;;;5073819;28;19982;-77
2022/07/10 01:46:08;;;;;;;;;;;18.50;99.90;;;;;;5073186;28;19916;-78
2022/07/10 01:48:34;;;;;;;;;;;18.50;99.90;;;;;;5073637;28;19908;-78
2022/07/10 01:50:59;;;;;;;;;;;18.30;99.90;;;;;;5073964;28;19931;-78
2022/07/10 01:53:25;;;;;;;;;;;18.30;99.90;;;;;;5073664;28;20041;-78
2022/07/10 01:55:51;;;;;;;;;;;18.20;99.90;;;;;;5073710;28;19959;-78
2022/07/10 01:58:16;;;;;;;;;;;18.20;99.90;;;;;;5073604;28;19908;-77
2022/07/10 02:00:42;;;;;;;;;;;18.20;99.90;;;;;;5073771;28;19908;-77
2022/07/10 02:05:51;;;;;;;;;;;18.10;99.90;;;;;;5073319;28;19955;-79
2022/07/10 02:08:17;;;;;;;;;;;18.10;99.90;;;;;;5073488;28;19908;-78
2022/07/10 02:10:44;;;;;;;;;;;18.10;99.90;;;;;;5073841;28;20025;-79
2022/07/10 02:13:10;;;;;;;;;;;18.10;99.90;;;;;;5073526;28;19915;-78
2022/07/10 02:15:36;;;;;;;;;;;18.00;99.90;;;;;;5073575;28;19912;-79
2022/07/10 02:18:01;;;;;;;;;;;17.90;99.90;;;;;;5073488;28;19916;-79
2022/07/10 02:20:32;;;;;;;;;;;17.90;99.90;;;;;;5073644;28;20050;-79
2022/07/10 02:22:58;;;;;;;;;;;17.90;99.90;;;;;;5073508;28;20364;-78
2022/07/10 02:25:23;;;;;;;;;;;17.70;99.90;;;;;;5073411;28;19915;-78
2022/07/10 02:27:49;;;;;;;;;;;17.60;99.90;;;;;;5073358;28;20316;-78
2022/07/10 02:30:14;;;;;;;;;;;17.70;99.90;;;;;;5073317;28;19915;-79
2022/07/10 02:32:40;;;;;;;;;;;17.80;99.90;;;;;;5073320;28;19962;-78
2022/07/10 02:35:05;;;;;;;;;;;17.70;99.90;;;;;;5071966;28;20296;-77
2022/07/10 02:37:31;;;;;;;;;;;17.70;99.90;;;;;;5073213;28;19913;-78
2022/07/10 02:39:57;;;;;;;;;;;17.60;99.90;;;;;;5073922;28;20365;-78
2022/07/10 02:42:22;;;;;;;;;;;17.60;99.90;;;;;;5093620;28;19969;-78
2022/07/10 02:44:48;;;;;;;;;;;17.60;99.90;;;;;;5093400;28;19915;-79
2022/07/10 02:47:13;;;;;;;;;;;17.60;99.90;;;;;;5093314;28;19915;-78
2022/07/10 02:49:39;;;;;;;;;;;17.50;99.90;;;;;;5093345;28;20318;-79
2022/07/10 02:52:05;;;;;;;;;;;17.40;99.90;;;;;;5075168;28;19940;-78
2022/07/10 02:54:30;;;;;;;;;;;17.30;99.90;;;;;;5093626;28;20360;-78
2022/07/10 02:56:56;;;;;;;;;;;17.40;99.90;;;;;;5095792;28;19948;-79
2022/07/10 02:59:21;;;;;;;;;;;17.40;99.90;;;;;;5097009;28;19909;-78
2022/07/10 03:01:47;;;;;;;;;;;17.40;99.90;;;;;;5096907;28;19909;-78
2022/07/10 03:04:12;;;;;;;;;;;17.40;99.90;;;;;;5096994;28;20372;-79
2022/07/10 03:06:38;;;;;;;;;;;17.40;99.90;;;;;;5097330;28;19909;-79
2022/07/10 03:09:04;;;;;;;;;;;17.50;99.90;;;;;;5097210;28;19908;-79
2022/07/10 03:11:29;;;;;;;;;;;17.50;99.90;;;;;;5097139;28;20053;-77
2022/07/10 03:13:55;;;;;;;;;;;17.50;99.90;;;;;;5096807;28;20292;-79
2022/07/10 03:16:20;;;;;;;;;;;17.50;99.90;;;;;;5096669;28;19997;-79
2022/07/10 03:18:46;;;;;;;;;;;17.40;99.90;;;;;;5096990;28;19916;-77
2022/07/10 03:21:11;;;;;;;;;;;17.30;99.90;;;;;;5097189;28;20027;-78
2022/07/10 03:23:39;;;;;;;;;;;17.30;99.90;;;;;;5096564;28;19920;-78
2022/07/10 03:26:04;;;;;;;;;;;17.20;99.90;;;;;;5096594;28;20334;-78
2022/07/10 03:28:30;;;;;;;;;;;17.20;99.90;;;;;;5096432;28;19916;-78
2022/07/10 03:30:56;;;;;;;;;;;17.20;99.90;;;;;;5096564;28;19919;-77
2022/07/10 03:33:22;;;;;;;;;;;17.10;99.90;;;;;;5096505;28;19908;-79
2022/07/10 03:35:48;;;;;;;;;;;17.10;99.90;;;;;;5096375;28;20334;-78
2022/07/10 03:38:13;;;;;;;;;;;17.10;99.90;;;;;;5096291;28;20002;-78
2022/07/10 03:40:39;;;;;;;;;;;17.10;99.90;;;;;;5096035;28;19955;-78
2022/07/10 03:43:05;;;;;;;;;;;17.10;99.90;;;;;;5096339;28;19970;-78
2022/07/10 03:45:30;;;;;;;;;;;17.20;99.90;;;;;;5096374;28;19934;-79
2022/07/10 03:47:56;;;;;;;;;;;17.20;99.90;;;;;;5096307;28;19912;-79
2022/07/10 03:50:21;;;;;;;;;;;17.10;99.90;;;;;;5096089;28;19908;-77
2022/07/10 03:52:47;;;;;;;;;;;17.20;99.90;;;;;;5096070;28;19908;-78
2022/07/10 03:55:13;;;;;;;;;;;17.20;99.90;;;;;;5096196;28;19919;-79
2022/07/10 03:57:53;;;;;;;;;;;17.10;99.90;;;;;;5096041;28;19936;-78
2022/07/10 04:00:28;;;;;;;;;;;16.90;99.90;;;;;;5096050;28;20356;-79
2022/07/10 04:02:58;;;;;;;;;;;16.90;99.90;;;;;;5095763;28;19968;-79
2022/07/10 04:05:24;;;;;;;;;;;16.80;99.90;;;;;;5095821;28;19908;-77
2022/07/10 04:07:50;;;;;;;;;;;16.70;99.90;;;;;;5095144;28;19912;-78
2022/07/10 04:10:16;;;;;;;;;;;16.60;99.90;;;;;;5095777;28;20360;-78
2022/07/10 04:12:42;;;;;;;;;;;16.60;99.90;;;;;;5095701;28;19908;-79
2022/07/10 04:15:07;;;;;;;;;;;16.60;99.90;;;;;;5095631;28;19944;-78
2022/07/10 04:17:33;;;;;;;;;;;16.60;99.90;;;;;;5095468;28;20261;-78
2022/07/10 04:19:59;;;;;;;;;;;16.70;99.90;;;;;;5095638;28;19909;-79
2022/07/10 04:22:25;;;;;;;;;;;16.80;99.90;;;;;;5095946;28;20412;-78
2022/07/10 04:24:51;;;;;;;;;;;16.80;99.90;;;;;;5077245;28;19915;-78
2022/07/10 04:27:16;;;;;;;;;;;16.90;99.90;;;;;;5095486;28;19908;-77
2022/07/10 04:29:42;;;;;;;;;;;16.80;99.90;;;;;;5095410;28;20275;-78
2022/07/10 04:32:08;;;;;;;;;;;16.80;99.90;;;;;;5095244;28;19908;-78
2022/07/10 04:34:34;;;;;;;;;;;16.90;99.90;;;;;;5095260;28;19915;-78
2022/07/10 04:37:00;;;;;;;;;;;16.90;99.90;;;;;;5095532;28;19908;-78
2022/07/10 04:39:25;;;;;;;;;;;16.90;99.90;;;;;;5095170;28;19919;-78
2022/07/10 04:41:51;;;;;;;;;;;16.80;99.90;;;;;;5076397;28;19923;-77
2022/07/10 04:44:17;;;;;;;;;;;16.70;99.90;;;;;;5095221;28;19961;-79
2022/07/10 04:46:43;;;;;;;;;;;16.90;99.90;;;;;;5094954;28;19908;-77
2022/07/10 04:49:09;;;;;;;;;;;17.00;99.90;;;;;;5094901;28;20290;-77
2022/07/10 04:51:34;;;;;;;;;;;17.10;99.90;;;;;;5094929;28;19954;-78
2022/07/10 04:54:00;;;;;;;;;;;17.10;99.90;;;;;;5076655;28;19908;-78
2022/07/10 04:56:26;;;;;;;;;;;17.20;99.90;;;;;;5094790;28;19912;-78
2022/07/10 04:58:51;;;;;;;;;;;17.00;99.90;;;;;;5095017;28;20368;-77
2022/07/10 05:01:17;;;;;;;;;;;16.90;99.90;;;;;;5094761;28;20364;-79
2022/07/10 05:03:43;;;;;;;;;;;16.90;99.90;;;;;;5094867;28;19962;-77
2022/07/10 05:06:08;;;;;;;;;;;17.00;99.90;;;;;;5094817;28;19931;-78
2022/07/10 05:08:34;;;;;;;;;;;17.10;99.90;;;;;;5094655;28;19908;-79
2022/07/10 05:10:59;;;;;;;;;;;17.20;99.90;;;;;;5094715;28;19972;-78
2022/07/10 05:13:25;;;;;;;;;;;17.10;99.90;;;;;;5094576;28;19912;-78
2022/07/10 05:15:51;;;;;;;;;;;17.00;99.90;;;;;;5094467;28;19908;-78
2022/07/10 05:18:17;;;;;;;;;;;16.90;99.90;;;;;;5094456;28;20284;-78
2022/07/10 05:20:44;;;;;;;;;;;16.90;99.90;;;;;;5093528;28;20288;-78
2022/07/10 05:23:11;;;;;;;;;;;16.90;99.90;;;;;;5094855;28;20384;-79
2022/07/10 05:25:37;;;;;;;;;;;17.00;99.90;;;;;;5094382;28;19909;-79
2022/07/10 05:28:04;;;;;;;;;;;17.00;99.90;;;;;;5094613;28;19915;-79
2022/07/10 05:30:29;;;;;;;;;;;17.10;99.90;;;;;;5094450;28;19908;-77
2022/07/10 05:32:55;;;;;;;;;;;17.30;99.90;;;;;;5094298;28;20007;-78
2022/07/10 05:35:20;;;;;;;;;;;17.30;99.90;;;;;;5094102;28;19908;-78
2022/07/10 05:37:46;;;;;;;;;;;17.50;99.90;;;;;;5094452;28;19915;-79
2022/07/10 05:40:12;;;;;;;;;;;17.70;99.90;;;;;;5075704;28;19912;-78
2022/07/10 05:42:37;;;;;;;;;;;17.90;99.90;;;;;;5094088;28;19967;-78
2022/07/10 05:45:04;;;;;;;;;;;18.00;99.90;;;;;;5093977;28;19915;-79
2022/07/10 05:47:29;;;;;;;;;;;18.10;99.90;;;;;;5094236;28;19941;-78
2022/07/10 05:49:55;;;;;;;;;;;18.10;99.90;;;;;;5094055;28;19912;-78
2022/07/10 05:52:21;;;;;;;;;;;18.10;99.90;;;;;;5093961;28;20030;-78
2022/07/10 05:54:46;;;;;;;;;;;18.30;99.90;;;;;;5093918;28;19915;-79
2022/07/10 05:57:12;;;;;;;;;;;18.30;99.90;;;;;;5093840;28;20276;-79
2022/07/10 05:59:37;;;;;;;;;;;18.30;99.90;;;;;;5094053;28;19908;-79
2022/07/10 06:02:03;;;;;;;;;;;18.40;99.90;;;;;;5093814;28;20367;-80
2022/07/10 06:04:29;;;;;;;;;;;18.60;99.90;;;;;;5093827;28;19908;-78
2022/07/10 06:06:54;;;;;;;;;;;18.60;99.90;;;;;;5093764;28;19944;-78
2022/07/10 06:09:20;;;;;;;;;;;18.70;99.90;;;;;;5075701;28;19908;-79
2022/07/10 06:11:48;;;;;;;;;;;18.70;99.90;;;;;;5094108;28;19912;-78
2022/07/10 06:14:13;;;;;;;;;;;18.80;99.90;;;;;;5093798;28;20360;-79
2022/07/10 06:16:39;;;;;;;;;;;18.90;99.90;;;;;;5093703;28;19908;-79
2022/07/10 06:19:05;;;;;;;;;;;19.10;99.90;;;;;;5093626;28;19961;-78
2022/07/10 06:21:31;;;;;;;;;;;19.10;99.90;;;;;;5094147;28;19921;-77
2022/07/10 06:23:56;;;;;;;;;;;19.20;99.90;;;;;;5075348;28;20295;-78
2022/07/10 06:26:22;;;;;;;;;;;19.30;99.90;;;;;;5093857;28;19952;-77
2022/07/10 06:28:48;;;;;;;;;;;19.40;99.90;;;;;;5093660;28;20368;-79
2022/07/10 06:31:13;;;;;;;;;;;19.30;99.90;;;;;;5094792;28;20373;-79
2022/07/10 06:33:39;;;;;;;;;;;19.30;99.90;;;;;;5097555;28;20003;-79
2022/07/10 06:36:05;;;;;;;;;;;19.40;99.90;;;;;;5097534;28;19989;-78
2022/07/10 06:38:31;;;;;;;;;;;19.40;99.90;;;;;;5097781;28;19908;-78
2022/07/10 06:40:56;;;;;;;;;;;19.30;99.90;;;;;;5097442;28;19916;-79
2022/07/10 06:43:22;;;;;;;;;;;19.50;99.90;;;;;;5097481;28;20383;-80
2022/07/10 06:45:47;;;;;;;;;;;19.70;99.90;;;;;;5079165;28;19908;-78
2022/07/10 06:48:13;;;;;;;;;;;19.70;99.90;;;;;;5097243;28;19908;-80
2022/07/10 06:50:39;;;;;;;;;;;19.80;99.90;;;;;;5097589;28;19908;-79
2022/07/10 06:53:05;;;;;;;;;;;19.90;99.90;;;;;;5097474;28;19957;-78
2022/07/10 06:55:31;;;;;;;;;;;19.90;99.90;;;;;;5078788;28;19914;-79
2022/07/10 06:57:58;;;;;;;;;;;20.00;99.90;;;;;;5097206;28;19908;-79
2022/07/10 07:00:23;;;;;;;;;;;20.00;99.90;;;;;;5097062;28;19908;-78
2022/07/10 07:02:49;;;;;;;;;;;20.10;99.90;;;;;;5096928;28;20010;-78
2022/07/10 07:05:15;;;;;;;;;;;20.10;99.90;;;;;;5097012;28;20370;-80
2022/07/10 07:07:40;;;;;;;;;;;20.10;99.90;;;;;;5096964;28;19951;-79
2022/07/10 07:10:06;;;;;;;;;;;20.10;99.90;;;;;;5096866;28;19955;-78
2022/07/10 07:12:32;;;;;;;;;;;20.10;99.90;;;;;;5096789;28;20411;-79
2022/07/10 07:14:57;;;;;;;;;;;20.20;99.90;;;;;;5096810;28;19946;-79
2022/07/10 07:17:33;;;;;;;;;;;20.30;99.90;;;;;;5097222;28;20292;-78
2022/07/10 07:25:27;;;;;;;;;;;20.60;99.90;;;;;;5096624;28;20326;-80
2022/07/10 07:27:53;;;;;;;;;;;20.60;99.90;;;;;;5096577;28;19908;-78
2022/07/10 07:30:18;;;;;;;;;;;20.80;99.90;;;;;;5096697;28;19908;-78
2022/07/10 07:32:45;;;;;;;;;;;20.90;99.90;;;;;;5096427;28;19954;-79
2022/07/10 07:35:11;;;;;;;;;;;21.00;99.90;;;;;;5096372;28;19914;-79
2022/07/10 07:37:44;;;;;;;;;;;21.00;97.90;;;;;;5096560;28;19915;-79
2022/07/10 07:40:13;;;;;;;;;;;21.00;97.30;;;;;;5096413;28;19908;-80
2022/07/10 07:42:40;;;;;;;;;;;21.10;98.00;;;;;;5095258;28;20376;-78
2022/07/10 07:45:06;;;;;;;;;;;22.50;93.40;;;;;;5096218;28;20291;-79
2022/07/10 07:47:43;;;;;;;;;;;25.70;85.80;;;;;;5095975;28;19995;-79
2022/07/10 07:50:08;;;;;;;;;;;27.90;77.50;;;;;;5096218;28;19908;-80
2022/07/10 07:52:35;;;;;;;;;;;29.60;71.30;;;;;;5096196;28;19908;-80
2022/07/10 07:55:01;;;;;;;;;;;30.30;67.30;;;;;;5096052;28;19943;-79
2022/07/10 07:57:26;;;;;;;;;;;31.00;66.70;;;;;;5096383;28;20279;-79
2022/07/10 07:59:52;;;;;;;;;;;31.50;64.50;;;;;;5096287;28;19977;-81
2022/07/10 08:02:17;;;;;;;;;;;31.40;64.00;;;;;;5096094;28;20433;-80
2022/07/10 08:04:43;;;;;;;;;;;31.60;63.10;;;;;;5095939;28;20360;-81
2022/07/10 08:07:09;;;;;;;;;;;31.00;63.10;;;;;;5096285;28;19908;-79
2022/07/10 08:09:34;;;;;;;;;;;31.70;63.40;;;;;;5095768;28;20002;-80
2022/07/10 08:12:00;;;;;;;;;;;30.90;62.40;;;;;;5096003;28;19916;-79
2022/07/10 08:14:26;;;;;;;;;;;30.70;64.10;;;;;;5095693;28;20375;-81
2022/07/10 08:16:52;;;;;;;;;;;30.80;63.40;;;;;;5095613;28;19908;-80
2022/07/10 08:19:17;;;;;;;;;;;30.70;63.50;;;;;;5095510;28;19908;-79
2022/07/10 08:21:43;;;;;;;;;;;29.90;63.70;;;;;;5096056;28;19996;-80
2022/07/10 08:24:09;;;;;;;;;;;29.80;65.80;;;;;;5095778;28;20049;-80
2022/07/10 08:26:34;;;;;;;;;;;29.90;67.70;;;;;;5095414;28;20097;-81
2022/07/10 08:29:00;;;;;;;;;;;29.60;65.90;;;;;;5095374;28;19912;-79
2022/07/10 08:31:25;;;;;;;;;;;29.40;62.90;;;;;;5095293;28;19974;-79
2022/07/10 08:33:52;;;;;;;;;;;29.30;63.10;;;;;;5076934;28;19908;-79
2022/07/10 08:36:17;;;;;;;;;;;28.80;62.80;;;;;;5095450;28;20003;-79
2022/07/10 08:38:43;;;;;;;;;;;28.90;63.50;;;;;;5095198;28;19947;-79
2022/07/10 08:41:10;;;;;;;;;;;28.60;63.20;;;;;;5094919;28;19922;-80
2022/07/10 08:43:36;;;;;;;;;;;28.80;62.10;;;;;;5094982;28;20015;-79
2022/07/10 08:46:02;;;;;;;;;;;28.80;62.00;;;;;;5076833;28;19908;-79
2022/07/10 08:48:30;;;;;;;;;;;28.80;61.00;;;;;;5095027;28;20444;-80
2022/07/10 08:50:58;;;;;;;;;;;28.60;61.50;;;;;;5094956;28;19912;-80
2022/07/10 08:53:28;;;;;;;;;;;28.80;61.70;;;;;;5076655;28;20288;-80
2022/07/10 08:55:54;;;;;;;;;;;28.70;60.20;;;;;;5094951;28;19976;-79
2022/07/10 08:58:19;;;;;;;;;;;29.10;59.60;;;;;;5094832;28;20428;-80
2022/07/10 09:00:45;;;;;;;;;;;29.30;58.60;;;;;;5094765;28;19908;-79
2022/07/10 09:03:11;;;;;;;;;;;29.30;58.70;;;;;;5094622;28;19912;-79
2022/07/10 09:05:37;;;;;;;;;;;29.20;58.00;;;;;;5076443;28;19969;-80
2022/07/10 09:08:02;;;;;;;;;;;29.10;59.00;;;;;;5076398;28;19911;-80
2022/07/10 09:10:28;;;;;;;;;;;29.20;58.30;;;;;;5094576;28;19908;-79
2022/07/10 09:12:58;;;;;;;;;;;29.20;58.20;;;;;;5094492;28;19915;-80
2022/07/10 09:15:25;;;;;;;;;;;29.70;58.20;;;;;;5094436;28;19947;-81
2022/07/10 09:17:52;;;;;;;;;;;30.00;56.60;;;;;;5094691;28;20380;-80
2022/07/10 09:20:27;;;;;;;;;;;30.20;56.50;;;;;;5094461;28;19950;-80
2022/07/10 09:22:52;;;;;;;;;;;30.30;55.90;;;;;;5076665;28;20373;-80
2022/07/10 09:25:18;;;;;;;;;;;30.30;54.90;;;;;;5094349;28;19957;-80
2022/07/10 09:27:56;;;;;;;;;;;30.40;54.50;;;;;;5094337;28;20375;-80
2022/07/10 09:30:32;;;;;;;;;;;30.50;54.60;;;;;;5094170;28;20284;-79
2022/07/10 09:33:24;;;;;;;;;;;30.50;54.70;;;;;;5094587;28;19915;-80
2022/07/10 09:36:05;;;;;;;;;;;30.70;52.80;;;;;;5094230;28;19919;-81
2022/07/10 09:38:43;;;;;;;;;;;30.80;54.10;;;;;;5094117;28;19994;-81
2022/07/10 09:41:12;;;;;;;;;;;31.20;52.70;;;;;;5094127;28;19923;-80
2022/07/10 09:43:45;;;;;;;;;;;30.70;53.20;;;;;;5094070;28;19922;-80
2022/07/10 09:46:11;;;;;;;;;;;31.00;52.10;;;;;;5094062;28;19908;-80
2022/07/10 09:48:36;;;;;;;;;;;31.10;51.90;;;;;;5094058;28;19908;-80
2022/07/10 09:51:02;;;;;;;;;;;31.00;51.40;;;;;;5094214;28;19908;-79
2022/07/10 09:53:29;;;;;;;;;;;31.30;51.70;;;;;;5093943;28;20341;-81
2022/07/10 09:55:56;;;;;;;;;;;31.40;51.00;;;;;;5093893;28;19948;-80
2022/07/10 09:58:24;;;;;;;;;;;31.40;51.40;;;;;;5094292;28;19930;-78
2022/07/10 10:00:50;;;;;;;;;;;31.60;51.00;;;;;;5093985;28;19912;-80
2022/07/10 10:03:18;;;;;;;;;;;31.90;51.00;;;;;;5093659;28;19916;-79
2022/07/10 10:05:59;;;;;;;;;;;32.50;50.70;;;;;;5075057;28;19908;-81
2022/07/10 10:08:25;;;;;;;;;;;32.50;50.30;;;;;;5093686;28;19908;-81
2022/07/10 10:10:51;;;;;;;;;;;32.40;50.40;;;;;;5093947;28;20037;-79
2022/07/10 10:13:18;;;;;;;;;;;32.90;50.50;;;;;;5093705;28;20386;-80
2022/07/10 10:15:45;;;;;;;;;;;32.50;50.30;;;;;;5075571;28;20373;-80
2022/07/10 10:18:11;;;;;;;;;;;33.10;49.70;;;;;;5093954;28;19915;-80
2022/07/10 10:20:37;;;;;;;;;;;32.90;49.40;;;;;;5093629;28;19908;-80
2022/07/10 10:23:09;;;;;;;;;;;32.90;49.30;;;;;;5094068;28;20387;-80
2022/07/10 10:25:35;;;;;;;;;;;33.30;49.10;;;;;;5093785;28;19914;-81
2022/07/10 10:28:01;;;;;;;;;;;33.40;48.10;;;;;;5093585;28;19908;-80
2022/07/10 10:30:27;;;;;;;;;;;33.60;48.20;;;;;;5093848;28;20257;-80
2022/07/10 10:32:53;;;;;;;;;;;33.70;48.30;;;;;;5093389;28;20273;-81
2022/07/10 10:35:39;;;;;;;;;;;33.80;48.30;;;;;;5093491;28;19916;-80
2022/07/10 10:38:05;;;;;;;;;;;33.50;48.20;;;;;;5082594;28;19908;-80
2022/07/10 10:40:32;;;;;;;;;;;33.90;48.30;;;;;;5093331;28;19919;-80
2022/07/10 10:42:58;;;;;;;;;;;33.40;48.50;;;;;;5093457;28;19916;-80
2022/07/10 10:45:27;;;;;;;;;;;33.70;48.30;;;;;;5093393;28;19936;-81
2022/07/10 10:48:05;;;;;;;;;;;33.80;48.10;;;;;;5093366;28;20292;-80
2022/07/10 10:50:43;;;;;;;;;;;33.50;48.10;;;;;;5093399;28;19946;-80
2022/07/10 10:53:16;;;;;;;;;;;34.00;48.20;;;;;;5093320;28;19912;-80
2022/07/10 10:56:17;;;;;;;;;;;34.10;46.90;;;;;;5093272;28;19995;-79
2022/07/10 10:58:44;;;;;;;;;;;34.40;47.60;;;;;;5030972;28;19916;-80
2022/07/10 11:01:21;;;;;;;;;;;35.30;48.00;;;;;;5080840;28;19948;-80
2022/07/10 11:04:06;;;;;;;;;;;36.10;45.50;;;;;;5093293;28;19912;-80
2022/07/10 11:06:41;;;;;;;;;;;35.20;45.80;;;;;;5093226;28;19915;-80
2022/07/10 11:09:24;;;;;;;;;;;35.50;46.20;;;;;;5093386;28;19909;-79
2022/07/10 11:12:05;;;;;;;;;;;35.50;45.70;;;;;;5093263;28;20372;-80
2022/07/10 11:14:32;;;;;;;;;;;35.50;45.00;;;;;;5093179;28;19915;-79
2022/07/10 11:16:58;;;;;;;;;;;35.10;45.20;;;;;;5093090;28;19995;-80
2022/07/10 11:19:24;;;;;;;;;;;35.30;45.50;;;;;;5096011;28;19947;-80
2022/07/10 11:21:55;;;;;;;;;;;35.30;46.20;;;;;;5078551;28;19946;-79
2022/07/10 11:24:33;;;;;;;;;;;36.10;45.20;;;;;;5078719;28;20365;-80
2022/07/10 11:27:02;;;;;;;;;;;36.50;45.30;;;;;;5097027;28;19954;-81
2022/07/10 11:29:28;;;;;;;;;;;36.30;44.90;;;;;;5096519;28;20033;-80
2022/07/10 11:31:54;;;;;;;;;;;36.70;44.90;;;;;;5096799;28;19942;-80
2022/07/10 11:34:21;;;;;;;;;;;37.00;44.40;;;;;;5096493;28;19973;-80
2022/07/10 11:36:47;;;;;;;;;;;37.20;44.50;;;;;;5096475;28;19909;-80
2022/07/10 11:39:13;;;;;;;;;;;37.20;44.10;;;;;;5096676;28;19908;-81
2022/07/10 11:41:42;;;;;;;;;;;37.20;43.80;;;;;;5096124;28;19916;-81
2022/07/10 11:44:15;;;;;;;;;;;36.70;44.40;;;;;;5096179;28;19916;-80
2022/07/10 11:46:44;;;;;;;;;;;36.60;44.10;;;;;;5096334;28;19908;-80
2022/07/10 11:49:10;;;;;;;;;;;36.90;43.70;;;;;;5096154;28;19915;-79
2022/07/10 11:51:37;;;;;;;;;;;36.30;43.90;;;;;;5096334;28;19908;-80
2022/07/10 11:54:04;;;;;;;;;;;36.40;44.60;;;;;;5096068;28;20364;-80
2022/07/10 11:56:32;;;;;;;;;;;37.00;45.00;;;;;;5096035;28;19931;-81
2022/07/10 11:59:02;;;;;;;;;;;37.20;44.20;;;;;;5095914;28;19912;-81
2022/07/10 12:01:29;;;;;;;;;;;37.20;43.90;;;;;;5077792;28;19999;-81
2022/07/10 12:03:58;;;;;;;;;;;36.40;42.80;;;;;;5095921;28;19912;-80
2022/07/10 12:06:24;;;;;;;;;;;36.10;43.50;;;;;;5096024;28;20257;-80
2022/07/10 12:08:50;;;;;;;;;;;36.60;44.20;;;;;;5095767;28;19919;-81
2022/07/10 12:11:18;;;;;;;;;;;37.40;43.80;;;;;;5095768;28;19912;-80
2022/07/10 12:13:44;;;;;;;;;;;37.70;42.80;;;;;;5095821;28;19939;-80
2022/07/10 12:16:09;;;;;;;;;;;38.30;43.10;;;;;;5095645;28;19908;-80
2022/07/10 12:18:35;;;;;;;;;;;38.60;42.90;;;;;;5095649;28;19914;-80
2022/07/10 12:21:01;;;;;;;;;;;38.70;43.40;;;;;;5095589;28;19912;-81
2022/07/10 12:23:28;;;;;;;;;;;38.80;42.90;;;;;;5096264;28;19916;-81
2022/07/10 12:25:56;;;;;;;;;;;39.10;43.10;;;;;;5095612;28;19987;-81
2022/07/10 12:28:21;;;;;;;;;;;38.10;42.90;;;;;;5095138;28;19908;-81
2022/07/10 12:30:49;;;;;;;;;;;38.00;43.40;;;;;;5095241;28;20003;-80
2022/07/10 12:33:18;;;;;;;;;;;38.20;42.70;;;;;;5095363;28;19908;-81
2022/07/10 12:35:57;;;;;;;;;;;38.60;42.90;;;;;;5095187;28;19982;-80
2022/07/10 12:38:26;;;;;;;;;;;38.40;42.50;;;;;;5095158;28;20398;-81
2022/07/10 12:41:08;;;;;;;;;;;38.30;43.50;;;;;;5094951;28;19916;-80
2022/07/10 12:43:34;;;;;;;;;;;38.30;42.80;;;;;;5095087;28;20447;-81
2022/07/10 12:46:12;;;;;;;;;;;38.60;43.10;;;;;;5095112;28;19947;-80
2022/07/10 12:48:40;;;;;;;;;;;38.70;42.60;;;;;;5094863;28;19908;-80
2022/07/10 12:51:22;;;;;;;;;;;38.90;42.50;;;;;;5095165;28;19908;-80
2022/07/10 12:53:47;;;;;;;;;;;38.50;42.60;;;;;;5094877;28;19961;-81
2022/07/10 12:56:45;;;;;;;;;;;38.00;42.60;;;;;;5076703;28;19912;-80
2022/07/10 12:59:14;;;;;;;;;;;38.30;42.90;;;;;;5061084;28;20421;-81
2022/07/10 13:01:41;;;;;;;;;;;38.50;42.60;;;;;;5095053;28;20403;-81
2022/07/10 13:04:08;;;;;;;;;;;38.70;42.60;;;;;;5094645;28;20363;-80
2022/07/10 13:06:35;;;;;;;;;;;39.10;42.90;;;;;;5094700;28;20484;-80
2022/07/10 13:09:02;;;;;;;;;;;39.90;42.20;;;;;;5094671;28;20003;-81
2022/07/10 13:11:28;;;;;;;;;;;40.20;42.00;;;;;;5094740;28;19908;-81
2022/07/10 13:13:53;;;;;;;;;;;40.20;42.00;;;;;;5094632;28;19916;-80
2022/07/10 13:16:21;;;;;;;;;;;39.50;42.30;;;;;;5094541;28;19908;-81
2022/07/10 13:18:46;;;;;;;;;;;39.20;42.60;;;;;;5094429;28;19961;-81
2022/07/10 13:21:12;;;;;;;;;;;39.00;43.20;;;;;;5094594;28;19908;-81
2022/07/10 13:23:38;;;;;;;;;;;38.50;43.30;;;;;;5094847;28;19912;-81
2022/07/10 13:26:06;;;;;;;;;;;38.50;43.50;;;;;;5094543;28;19908;-81
2022/07/10 13:28:32;;;;;;;;;;;38.90;43.70;;;;;;5094444;28;19999;-81
2022/07/10 13:30:58;;;;;;;;;;;38.70;43.80;;;;;;5094266;28;19947;-81
2022/07/10 13:33:24;;;;;;;;;;;38.20;43.00;;;;;;5094206;28;19908;-79
2022/07/10 13:35:49;;;;;;;;;;;38.10;43.30;;;;;;5094291;28;19909;-80
2022/07/10 13:38:17;;;;;;;;;;;38.10;43.30;;;;;;5094217;28;19953;-81
2022/07/10 13:40:44;;;;;;;;;;;38.10;43.60;;;;;;5093151;28;19923;-82
2022/07/10 13:43:09;;;;;;;;;;;39.40;43.50;;;;;;5094031;28;19916;-80
2022/07/10 13:45:42;;;;;;;;;;;40.00;42.90;;;;;;5094346;28;20253;-80
2022/07/10 13:48:09;;;;;;;;;;;40.40;42.70;;;;;;5075763;28;19915;-82
2022/07/10 13:50:36;;;;;;;;;;;40.40;42.20;;;;;;5093986;28;19958;-81
2022/07/10 13:53:02;;;;;;;;;;;39.20;42.30;;;;;;5094330;28;20380;-80
2022/07/10 13:55:28;;;;;;;;;;;37.90;43.10;;;;;;5093901;28;19909;-78
2022/07/10 13:57:54;;;;;;;;;;;36.60;44.00;;;;;;5093922;28;19914;-78
2022/07/10 14:00:20;;;;;;;;;;;35.90;44.70;;;;;;5093827;28;19908;-78
2022/07/10 14:02:45;;;;;;;;;;;36.10;45.20;;;;;;5093729;28;19912;-79
2022/07/10 14:05:11;;;;;;;;;;;37.20;44.60;;;;;;5093770;28;19954;-78
2022/07/10 14:07:36;;;;;;;;;;;37.80;44.70;;;;;;5075509;28;19918;-78
2022/07/10 14:10:02;;;;;;;;;;;38.40;44.40;;;;;;5093786;28;20288;-78
2022/07/10 14:12:28;;;;;;;;;;;38.90;44.10;;;;;;5093708;28;19908;-79
2022/07/10 14:14:54;;;;;;;;;;;38.90;43.30;;;;;;5093879;28;19915;-80
2022/07/10 14:17:19;;;;;;;;;;;38.90;43.30;;;;;;5093880;28;19908;-79
2022/07/10 14:19:45;;;;;;;;;;;39.10;43.80;;;;;;5075504;28;19912;-79
2022/07/10 14:22:11;;;;;;;;;;;38.40;43.60;;;;;;5093583;28;19908;-78
2022/07/10 14:24:36;;;;;;;;;;;39.00;44.40;;;;;;5094441;28;19920;-78